首页
METAR-TAF:

METAR-TAF

机场 :

大不里士, 伊朗

纬度: 38-05N, 经度: 046-17E, 海拔: 1367米

当前天气观测

该预报发布于30分钟前的08:30 UTC
风速2节,风向多变
温度 23°C
湿度 17%
气压 1027 hPa
能见度10公里或以上
1500米以下无云,无积雨云

METAR: OITT 170830Z VRB02KT CAVOK 23/M03 Q1027 A3033

时间: 12:30 (09:00 UTC)

预报

该预报发布于3小时和30分钟前的05:30 UTC
预报有效从17日的 06点(UTC)到 18日的 12点(UTC)
风速6节,风向东北
能見度: 7000
少量云层高于4000英尺
短暂存在
从 17日的 06点(UTC)到 17日的 12点(UTC)
风速16节,风向西转西南
少量云层高于4000英尺, 塔状积云.
散云层高于10000英尺
短暂存在
从 18日的 10点(UTC)到 18日的 12点(UTC)
风速16节,风向西转西南

TAF: OITT 170530Z 1706/1812 04006KT 7000 FEW040 TEMPO 1706/1712 24016KT FEW040TCU SCT100 TEMPO 1810/1812 24016KT

超过4000个机场的气象观测和天气预报(METAR&TAF报告)。

可查询的气象台以黄色和红色小点在地图上表示。

将鼠标移到小点上方,可查看气象台名称。

然后点击查看天气观测和预报。

如需切换地图:点击带黑十字的绿色按钮放大地图;点击带横线的绿色按钮缩小地图;或者点击绿色箭头查看邻近地区的地图。


METAR-TAF: